sensor_id;sensor_type;location;lat;lon;timestamp;P1;durP1;ratioP1;P2;durP2;ratioP2
11809;SDS011;5962;41.566;23.734;2024-03-22T00:02:09;6.13;;;4.50;;
11809;SDS011;5962;41.566;23.734;2024-03-22T00:04:36;5.83;;;3.07;;
11809;SDS011;5962;41.566;23.734;2024-03-22T00:07:03;2.60;;;2.17;;
11809;SDS011;5962;41.566;23.734;2024-03-22T00:09:30;3.33;;;2.60;;
11809;SDS011;5962;41.566;23.734;2024-03-22T00:11:56;2.87;;;2.63;;
11809;SDS011;5962;41.566;23.734;2024-03-22T00:14:23;7.87;;;5.63;;
11809;SDS011;5962;41.566;23.734;2024-03-22T00:16:49;6.03;;;4.00;;
11809;SDS011;5962;41.566;23.734;2024-03-22T00:19:18;7.30;;;5.40;;
11809;SDS011;5962;41.566;23.734;2024-03-22T00:21:44;9.70;;;5.70;;
11809;SDS011;5962;41.566;23.734;2024-03-22T00:24:11;9.90;;;5.53;;
11809;SDS011;5962;41.566;23.734;2024-03-22T00:26:37;4.93;;;3.70;;
11809;SDS011;5962;41.566;23.734;2024-03-22T00:29:04;5.30;;;3.47;;
11809;SDS011;5962;41.566;23.734;2024-03-22T00:31:30;7.47;;;2.60;;
11809;SDS011;5962;41.566;23.734;2024-03-22T00:33:57;3.70;;;2.30;;
11809;SDS011;5962;41.566;23.734;2024-03-22T00:36:24;4.30;;;2.70;;
11809;SDS011;5962;41.566;23.734;2024-03-22T00:38:51;4.67;;;3.33;;
11809;SDS011;5962;41.566;23.734;2024-03-22T00:41:17;5.40;;;3.63;;
11809;SDS011;5962;41.566;23.734;2024-03-22T00:43:44;8.50;;;4.80;;
11809;SDS011;5962;41.566;23.734;2024-03-22T00:46:10;5.93;;;4.17;;
11809;SDS011;5962;41.566;23.734;2024-03-22T00:48:37;5.83;;;3.70;;
11809;SDS011;5962;41.566;23.734;2024-03-22T00:51:03;12.87;;;4.80;;
11809;SDS011;5962;41.566;23.734;2024-03-22T00:53:32;12.97;;;4.67;;
11809;SDS011;5962;41.566;23.734;2024-03-22T00:55:58;7.73;;;4.30;;
11809;SDS011;5962;41.566;23.734;2024-03-22T00:58:26;5.77;;;4.10;;
11809;SDS011;5962;41.566;23.734;2024-03-22T01:00:52;12.03;;;5.17;;
11809;SDS011;5962;41.566;23.734;2024-03-22T01:03:19;10.73;;;4.33;;
11809;SDS011;5962;41.566;23.734;2024-03-22T01:05:46;8.10;;;4.07;;
11809;SDS011;5962;41.566;23.734;2024-03-22T01:08:13;7.60;;;4.20;;
11809;SDS011;5962;41.566;23.734;2024-03-22T01:10:40;7.93;;;4.87;;
11809;SDS011;5962;41.566;23.734;2024-03-22T01:13:07;5.43;;;3.87;;
11809;SDS011;5962;41.566;23.734;2024-03-22T01:15:34;5.13;;;3.50;;
11809;SDS011;5962;41.566;23.734;2024-03-22T01:18:01;6.10;;;3.63;;
11809;SDS011;5962;41.566;23.734;2024-03-22T01:20:27;5.73;;;3.63;;
11809;SDS011;5962;41.566;23.734;2024-03-22T01:22:54;4.53;;;3.57;;
11809;SDS011;5962;41.566;23.734;2024-03-22T01:25:20;5.13;;;3.60;;
11809;SDS011;5962;41.566;23.734;2024-03-22T01:27:48;6.77;;;3.87;;
11809;SDS011;5962;41.566;23.734;2024-03-22T01:30:14;7.23;;;3.20;;
11809;SDS011;5962;41.566;23.734;2024-03-22T01:32:41;5.27;;;3.67;;
11809;SDS011;5962;41.566;23.734;2024-03-22T01:35:08;6.57;;;4.23;;
11809;SDS011;5962;41.566;23.734;2024-03-22T01:37:35;9.53;;;4.90;;
11809;SDS011;5962;41.566;23.734;2024-03-22T01:40:01;8.20;;;5.60;;
11809;SDS011;5962;41.566;23.734;2024-03-22T01:42:29;7.40;;;5.53;;
11809;SDS011;5962;41.566;23.734;2024-03-22T01:44:57;9.50;;;5.93;;
11809;SDS011;5962;41.566;23.734;2024-03-22T01:47:24;8.23;;;4.80;;
11809;SDS011;5962;41.566;23.734;2024-03-22T01:49:50;22.20;;;9.03;;
11809;SDS011;5962;41.566;23.734;2024-03-22T01:52:20;11.93;;;6.60;;
11809;SDS011;5962;41.566;23.734;2024-03-22T01:54:46;10.60;;;5.40;;
11809;SDS011;5962;41.566;23.734;2024-03-22T01:57:13;6.43;;;4.23;;
11809;SDS011;5962;41.566;23.734;2024-03-22T01:59:39;5.33;;;3.37;;
11809;SDS011;5962;41.566;23.734;2024-03-22T02:02:07;5.67;;;3.43;;
11809;SDS011;5962;41.566;23.734;2024-03-22T02:04:34;6.33;;;3.93;;
11809;SDS011;5962;41.566;23.734;2024-03-22T02:07:01;4.87;;;3.77;;
11809;SDS011;5962;41.566;23.734;2024-03-22T02:09:27;7.83;;;4.00;;
11809;SDS011;5962;41.566;23.734;2024-03-22T02:11:54;6.57;;;4.93;;
11809;SDS011;5962;41.566;23.734;2024-03-22T02:14:20;7.70;;;4.90;;
11809;SDS011;5962;41.566;23.734;2024-03-22T02:16:47;10.17;;;5.07;;
11809;SDS011;5962;41.566;23.734;2024-03-22T02:19:14;8.73;;;6.00;;
11809;SDS011;5962;41.566;23.734;2024-03-22T02:21:41;10.00;;;5.97;;
11809;SDS011;5962;41.566;23.734;2024-03-22T02:24:09;13.73;;;6.57;;
11809;SDS011;5962;41.566;23.734;2024-03-22T02:26:36;10.07;;;6.37;;
11809;SDS011;5962;41.566;23.734;2024-03-22T02:29:03;11.57;;;6.97;;
11809;SDS011;5962;41.566;23.734;2024-03-22T02:31:29;7.17;;;5.07;;
11809;SDS011;5962;41.566;23.734;2024-03-22T02:33:57;7.03;;;4.77;;
11809;SDS011;5962;41.566;23.734;2024-03-22T02:36:23;11.47;;;5.77;;
11809;SDS011;5962;41.566;23.734;2024-03-22T02:38:50;7.03;;;4.40;;
11809;SDS011;5962;41.566;23.734;2024-03-22T02:41:18;6.37;;;3.93;;
11809;SDS011;5962;41.566;23.734;2024-03-22T02:43:45;7.57;;;4.87;;
11809;SDS011;5962;41.566;23.734;2024-03-22T02:46:11;4.67;;;3.30;;
11809;SDS011;5962;41.566;23.734;2024-03-22T02:48:37;5.23;;;3.87;;
11809;SDS011;5962;41.566;23.734;2024-03-22T02:51:04;6.07;;;3.97;;
11809;SDS011;5962;41.566;23.734;2024-03-22T02:53:31;6.27;;;3.73;;
11809;SDS011;5962;41.566;23.734;2024-03-22T02:55:59;7.43;;;4.03;;
11809;SDS011;5962;41.566;23.734;2024-03-22T02:58:28;6.37;;;3.70;;
11809;SDS011;5962;41.566;23.734;2024-03-22T03:00:54;5.17;;;4.10;;
11809;SDS011;5962;41.566;23.734;2024-03-22T03:03:21;7.60;;;3.67;;
11809;SDS011;5962;41.566;23.734;2024-03-22T03:05:47;5.77;;;2.90;;
11809;SDS011;5962;41.566;23.734;2024-03-22T03:08:14;8.20;;;4.30;;
11809;SDS011;5962;41.566;23.734;2024-03-22T03:10:40;7.30;;;3.00;;
11809;SDS011;5962;41.566;23.734;2024-03-22T03:13:07;7.00;;;3.10;;
11809;SDS011;5962;41.566;23.734;2024-03-22T03:15:34;6.37;;;3.43;;
11809;SDS011;5962;41.566;23.734;2024-03-22T03:18:01;7.53;;;3.90;;
11809;SDS011;5962;41.566;23.734;2024-03-22T03:20:27;6.67;;;4.50;;
11809;SDS011;5962;41.566;23.734;2024-03-22T03:22:54;7.40;;;4.30;;
11809;SDS011;5962;41.566;23.734;2024-03-22T03:25:20;13.73;;;8.97;;
11809;SDS011;5962;41.566;23.734;2024-03-22T03:27:47;24.83;;;14.33;;
11809;SDS011;5962;41.566;23.734;2024-03-22T03:30:14;24.23;;;9.27;;
11809;SDS011;5962;41.566;23.734;2024-03-22T03:32:42;12.27;;;8.33;;
11809;SDS011;5962;41.566;23.734;2024-03-22T03:35:08;11.67;;;6.47;;
11809;SDS011;5962;41.566;23.734;2024-03-22T03:37:35;10.83;;;7.57;;
11809;SDS011;5962;41.566;23.734;2024-03-22T03:40:01;10.33;;;7.37;;
11809;SDS011;5962;41.566;23.734;2024-03-22T03:42:29;10.50;;;7.57;;
11809;SDS011;5962;41.566;23.734;2024-03-22T03:44:55;9.83;;;6.87;;
11809;SDS011;5962;41.566;23.734;2024-03-22T03:47:22;9.90;;;5.90;;
11809;SDS011;5962;41.566;23.734;2024-03-22T03:49:50;11.80;;;6.20;;
11809;SDS011;5962;41.566;23.734;2024-03-22T03:52:17;10.77;;;5.63;;
11809;SDS011;5962;41.566;23.734;2024-03-22T03:54:43;11.13;;;5.97;;
11809;SDS011;5962;41.566;23.734;2024-03-22T03:57:10;8.27;;;5.60;;
11809;SDS011;5962;41.566;23.734;2024-03-22T03:59:36;6.37;;;4.93;;
11809;SDS011;5962;41.566;23.734;2024-03-22T04:02:03;7.47;;;5.00;;
11809;SDS011;5962;41.566;23.734;2024-03-22T04:04:29;5.30;;;4.20;;
11809;SDS011;5962;41.566;23.734;2024-03-22T04:06:58;6.27;;;4.43;;
11809;SDS011;5962;41.566;23.734;2024-03-22T04:09:24;9.20;;;5.03;;
11809;SDS011;5962;41.566;23.734;2024-03-22T04:11:50;13.73;;;4.87;;
11809;SDS011;5962;41.566;23.734;2024-03-22T04:14:16;8.93;;;5.10;;
11809;SDS011;5962;41.566;23.734;2024-03-22T04:16:44;6.83;;;4.53;;
11809;SDS011;5962;41.566;23.734;2024-03-22T04:19:10;11.10;;;4.80;;
11809;SDS011;5962;41.566;23.734;2024-03-22T04:21:37;5.17;;;4.17;;
11809;SDS011;5962;41.566;23.734;2024-03-22T04:24:04;5.27;;;3.63;;
11809;SDS011;5962;41.566;23.734;2024-03-22T04:26:32;4.87;;;3.43;;
11809;SDS011;5962;41.566;23.734;2024-03-22T04:28:58;17.53;;;9.03;;
11809;SDS011;5962;41.566;23.734;2024-03-22T04:31:25;22.07;;;12.40;;
11809;SDS011;5962;41.566;23.734;2024-03-22T04:33:52;14.63;;;9.93;;
11809;SDS011;5962;41.566;23.734;2024-03-22T04:36:19;16.27;;;9.37;;
11809;SDS011;5962;41.566;23.734;2024-03-22T04:38:44;14.00;;;8.73;;
11809;SDS011;5962;41.566;23.734;2024-03-22T04:41:13;13.83;;;9.00;;
11809;SDS011;5962;41.566;23.734;2024-03-22T04:43:40;13.70;;;7.17;;
11809;SDS011;5962;41.566;23.734;2024-03-22T04:46:07;10.00;;;6.40;;
11809;SDS011;5962;41.566;23.734;2024-03-22T04:48:33;9.23;;;6.30;;
11809;SDS011;5962;41.566;23.734;2024-03-22T04:51:00;10.10;;;7.03;;
11809;SDS011;5962;41.566;23.734;2024-03-22T04:53:26;11.07;;;8.10;;
11809;SDS011;5962;41.566;23.734;2024-03-22T04:55:53;11.50;;;7.63;;
11809;SDS011;5962;41.566;23.734;2024-03-22T04:58:20;15.60;;;8.30;;
11809;SDS011;5962;41.566;23.734;2024-03-22T05:00:48;17.80;;;10.03;;
11809;SDS011;5962;41.566;23.734;2024-03-22T05:03:15;12.33;;;7.43;;
11809;SDS011;5962;41.566;23.734;2024-03-22T05:05:42;11.40;;;5.43;;
11809;SDS011;5962;41.566;23.734;2024-03-22T05:08:09;12.93;;;6.57;;
11809;SDS011;5962;41.566;23.734;2024-03-22T05:10:36;7.23;;;6.00;;
11809;SDS011;5962;41.566;23.734;2024-03-22T05:13:02;10.60;;;7.17;;
11809;SDS011;5962;41.566;23.734;2024-03-22T05:15:30;12.40;;;7.97;;
11809;SDS011;5962;41.566;23.734;2024-03-22T05:17:57;9.63;;;7.07;;
11809;SDS011;5962;41.566;23.734;2024-03-22T05:20:24;11.80;;;7.53;;
11809;SDS011;5962;41.566;23.734;2024-03-22T05:22:51;11.70;;;7.70;;
11809;SDS011;5962;41.566;23.734;2024-03-22T05:25:18;10.27;;;7.17;;
11809;SDS011;5962;41.566;23.734;2024-03-22T05:27:44;12.23;;;7.83;;
11809;SDS011;5962;41.566;23.734;2024-03-22T05:30:11;24.67;;;9.00;;
11809;SDS011;5962;41.566;23.734;2024-03-22T05:32:40;13.13;;;7.47;;
11809;SDS011;5962;41.566;23.734;2024-03-22T05:35:07;16.90;;;7.77;;
11809;SDS011;5962;41.566;23.734;2024-03-22T05:37:33;13.57;;;7.93;;
11809;SDS011;5962;41.566;23.734;2024-03-22T05:40:01;15.10;;;8.77;;
11809;SDS011;5962;41.566;23.734;2024-03-22T05:42:27;21.67;;;9.43;;
11809;SDS011;5962;41.566;23.734;2024-03-22T05:44:55;13.37;;;8.47;;
11809;SDS011;5962;41.566;23.734;2024-03-22T05:47:21;16.73;;;8.43;;
11809;SDS011;5962;41.566;23.734;2024-03-22T05:49:49;14.93;;;7.00;;
11809;SDS011;5962;41.566;23.734;2024-03-22T05:52:16;13.27;;;8.17;;
11809;SDS011;5962;41.566;23.734;2024-03-22T05:54:42;14.57;;;8.43;;
11809;SDS011;5962;41.566;23.734;2024-03-22T05:57:09;15.87;;;8.70;;
11809;SDS011;5962;41.566;23.734;2024-03-22T05:59:36;23.73;;;9.47;;
11809;SDS011;5962;41.566;23.734;2024-03-22T06:02:04;17.00;;;8.90;;
11809;SDS011;5962;41.566;23.734;2024-03-22T06:04:30;16.13;;;8.80;;
11809;SDS011;5962;41.566;23.734;2024-03-22T06:06:59;14.23;;;8.70;;
11809;SDS011;5962;41.566;23.734;2024-03-22T06:09:25;15.83;;;8.50;;
11809;SDS011;5962;41.566;23.734;2024-03-22T06:12:02;17.83;;;9.10;;
11809;SDS011;5962;41.566;23.734;2024-03-22T06:14:29;18.30;;;9.40;;
11809;SDS011;5962;41.566;23.734;2024-03-22T06:16:56;16.03;;;9.30;;
11809;SDS011;5962;41.566;23.734;2024-03-22T06:19:23;19.90;;;11.17;;
11809;SDS011;5962;41.566;23.734;2024-03-22T06:21:50;19.13;;;10.10;;
11809;SDS011;5962;41.566;23.734;2024-03-22T06:24:18;19.70;;;11.40;;
11809;SDS011;5962;41.566;23.734;2024-03-22T06:26:45;15.23;;;10.60;;
11809;SDS011;5962;41.566;23.734;2024-03-22T06:29:11;11.50;;;9.57;;
11809;SDS011;5962;41.566;23.734;2024-03-22T06:31:38;28.27;;;12.40;;
11809;SDS011;5962;41.566;23.734;2024-03-22T06:34:04;18.17;;;10.03;;
11809;SDS011;5962;41.566;23.734;2024-03-22T06:36:31;13.40;;;7.50;;
11809;SDS011;5962;41.566;23.734;2024-03-22T06:38:57;10.40;;;7.03;;
11809;SDS011;5962;41.566;23.734;2024-03-22T06:41:27;9.30;;;5.60;;
11809;SDS011;5962;41.566;23.734;2024-03-22T06:43:53;11.03;;;5.47;;
11809;SDS011;5962;41.566;23.734;2024-03-22T06:46:20;9.27;;;5.43;;
11809;SDS011;5962;41.566;23.734;2024-03-22T06:48:46;11.17;;;5.30;;
11809;SDS011;5962;41.566;23.734;2024-03-22T06:51:13;5.43;;;4.50;;
11809;SDS011;5962;41.566;23.734;2024-03-22T06:53:39;8.40;;;4.67;;
11809;SDS011;5962;41.566;23.734;2024-03-22T06:56:06;7.33;;;4.60;;
11809;SDS011;5962;41.566;23.734;2024-03-22T06:58:36;6.47;;;4.50;;
11809;SDS011;5962;41.566;23.734;2024-03-22T07:01:03;9.17;;;4.97;;
11809;SDS011;5962;41.566;23.734;2024-03-22T07:03:29;7.03;;;4.63;;
11809;SDS011;5962;41.566;23.734;2024-03-22T07:05:56;11.67;;;4.47;;
11809;SDS011;5962;41.566;23.734;2024-03-22T07:08:23;7.07;;;4.43;;
11809;SDS011;5962;41.566;23.734;2024-03-22T07:10:50;7.97;;;4.37;;
11809;SDS011;5962;41.566;23.734;2024-03-22T07:13:16;7.43;;;4.63;;
11809;SDS011;5962;41.566;23.734;2024-03-22T07:15:45;10.73;;;5.57;;
11809;SDS011;5962;41.566;23.734;2024-03-22T07:18:12;8.37;;;5.70;;
11809;SDS011;5962;41.566;23.734;2024-03-22T07:20:39;8.87;;;5.40;;
11809;SDS011;5962;41.566;23.734;2024-03-22T07:23:06;10.43;;;6.10;;
11809;SDS011;5962;41.566;23.734;2024-03-22T07:25:33;13.80;;;5.27;;
11809;SDS011;5962;41.566;23.734;2024-03-22T07:27:59;11.33;;;6.10;;
11809;SDS011;5962;41.566;23.734;2024-03-22T07:30:26;15.63;;;6.53;;
11809;SDS011;5962;41.566;23.734;2024-03-22T07:32:53;8.20;;;5.17;;
11809;SDS011;5962;41.566;23.734;2024-03-22T07:35:20;9.47;;;5.10;;
11809;SDS011;5962;41.566;23.734;2024-03-22T07:37:46;8.43;;;5.20;;
11809;SDS011;5962;41.566;23.734;2024-03-22T07:40:13;11.20;;;6.00;;
11809;SDS011;5962;41.566;23.734;2024-03-22T07:42:39;11.27;;;5.77;;
11809;SDS011;5962;41.566;23.734;2024-03-22T07:45:06;8.97;;;5.57;;
11809;SDS011;5962;41.566;23.734;2024-03-22T07:47:34;9.77;;;6.10;;
11809;SDS011;5962;41.566;23.734;2024-03-22T07:50:02;17.77;;;7.43;;
11809;SDS011;5962;41.566;23.734;2024-03-22T07:52:29;24.80;;;8.70;;
11809;SDS011;5962;41.566;23.734;2024-03-22T07:54:56;15.10;;;6.07;;
11809;SDS011;5962;41.566;23.734;2024-03-22T07:57:22;9.80;;;5.90;;
11809;SDS011;5962;41.566;23.734;2024-03-22T07:59:49;10.73;;;5.30;;
11809;SDS011;5962;41.566;23.734;2024-03-22T08:02:15;8.20;;;5.47;;
11809;SDS011;5962;41.566;23.734;2024-03-22T08:04:42;9.63;;;6.27;;
11809;SDS011;5962;41.566;23.734;2024-03-22T08:07:09;8.03;;;5.90;;
11809;SDS011;5962;41.566;23.734;2024-03-22T08:09:36;7.30;;;5.63;;
11809;SDS011;5962;41.566;23.734;2024-03-22T08:12:03;8.10;;;5.80;;
11809;SDS011;5962;41.566;23.734;2024-03-22T08:14:30;7.03;;;5.33;;
11809;SDS011;5962;41.566;23.734;2024-03-22T08:16:56;8.50;;;6.13;;
11809;SDS011;5962;41.566;23.734;2024-03-22T08:19:23;11.73;;;5.83;;
11809;SDS011;5962;41.566;23.734;2024-03-22T08:21:49;8.80;;;6.33;;
11809;SDS011;5962;41.566;23.734;2024-03-22T08:24:18;7.83;;;5.60;;
11809;SDS011;5962;41.566;23.734;2024-03-22T08:26:44;8.47;;;5.77;;
11809;SDS011;5962;41.566;23.734;2024-03-22T08:29:12;23.67;;;6.37;;
11809;SDS011;5962;41.566;23.734;2024-03-22T08:31:39;16.53;;;7.10;;
11809;SDS011;5962;41.566;23.734;2024-03-22T08:34:07;9.97;;;5.83;;
11809;SDS011;5962;41.566;23.734;2024-03-22T08:36:33;11.50;;;4.50;;
11809;SDS011;5962;41.566;23.734;2024-03-22T08:39:00;9.03;;;4.30;;
11809;SDS011;5962;41.566;23.734;2024-03-22T08:41:27;6.50;;;4.10;;
11809;SDS011;5962;41.566;23.734;2024-03-22T08:43:54;5.90;;;4.00;;
11809;SDS011;5962;41.566;23.734;2024-03-22T08:46:20;8.03;;;5.00;;
11809;SDS011;5962;41.566;23.734;2024-03-22T08:48:48;18.93;;;6.40;;
11809;SDS011;5962;41.566;23.734;2024-03-22T08:51:14;6.27;;;4.70;;
11809;SDS011;5962;41.566;23.734;2024-03-22T08:53:41;11.67;;;4.60;;
11809;SDS011;5962;41.566;23.734;2024-03-22T08:56:07;4.17;;;3.50;;
11809;SDS011;5962;41.566;23.734;2024-03-22T08:58:35;17.13;;;5.70;;
11809;SDS011;5962;41.566;23.734;2024-03-22T09:01:01;5.30;;;3.77;;
11809;SDS011;5962;41.566;23.734;2024-03-22T09:03:28;5.50;;;3.30;;
11809;SDS011;5962;41.566;23.734;2024-03-22T09:05:55;4.47;;;3.60;;
11809;SDS011;5962;41.566;23.734;2024-03-22T09:08:23;6.37;;;2.60;;
11809;SDS011;5962;41.566;23.734;2024-03-22T09:10:49;2.67;;;2.10;;
11809;SDS011;5962;41.566;23.734;2024-03-22T09:13:16;2.83;;;2.00;;
11809;SDS011;5962;41.566;23.734;2024-03-22T09:15:43;2.67;;;2.47;;
11809;SDS011;5962;41.566;23.734;2024-03-22T09:18:10;2.40;;;2.20;;
11809;SDS011;5962;41.566;23.734;2024-03-22T09:20:36;3.13;;;2.20;;
11809;SDS011;5962;41.566;23.734;2024-03-22T09:23:03;2.23;;;2.03;;
11809;SDS011;5962;41.566;23.734;2024-03-22T09:25:29;4.90;;;2.60;;
11809;SDS011;5962;41.566;23.734;2024-03-22T09:27:56;2.77;;;2.20;;
11809;SDS011;5962;41.566;23.734;2024-03-22T09:30:22;4.13;;;2.37;;
11809;SDS011;5962;41.566;23.734;2024-03-22T09:32:51;2.93;;;2.10;;
11809;SDS011;5962;41.566;23.734;2024-03-22T09:35:17;2.20;;;2.00;;
11809;SDS011;5962;41.566;23.734;2024-03-22T09:37:44;2.60;;;1.90;;
11809;SDS011;5962;41.566;23.734;2024-03-22T09:40:10;2.97;;;1.77;;
11809;SDS011;5962;41.566;23.734;2024-03-22T09:42:38;3.80;;;2.27;;
11809;SDS011;5962;41.566;23.734;2024-03-22T09:45:08;3.87;;;2.93;;
11809;SDS011;5962;41.566;23.734;2024-03-22T09:47:36;2.83;;;2.47;;
11809;SDS011;5962;41.566;23.734;2024-03-22T09:50:04;3.23;;;2.30;;
11809;SDS011;5962;41.566;23.734;2024-03-22T09:52:33;3.23;;;2.40;;
11809;SDS011;5962;41.566;23.734;2024-03-22T09:55:03;2.50;;;2.30;;
11809;SDS011;5962;41.566;23.734;2024-03-22T09:57:31;2.40;;;2.20;;
11809;SDS011;5962;41.566;23.734;2024-03-22T10:00:03;3.03;;;2.30;;
11809;SDS011;5962;41.566;23.734;2024-03-22T10:02:34;4.53;;;1.97;;
11809;SDS011;5962;41.566;23.734;2024-03-22T10:05:00;3.60;;;2.17;;
11809;SDS011;5962;41.566;23.734;2024-03-22T10:07:29;5.87;;;2.30;;
11809;SDS011;5962;41.566;23.734;2024-03-22T10:09:57;2.67;;;1.93;;
11809;SDS011;5962;41.566;23.734;2024-03-22T10:12:25;4.83;;;2.27;;
11809;SDS011;5962;41.566;23.734;2024-03-22T10:14:52;4.23;;;2.43;;
11809;SDS011;5962;41.566;23.734;2024-03-22T10:17:19;3.77;;;2.20;;
11809;SDS011;5962;41.566;23.734;2024-03-22T10:19:45;3.10;;;2.03;;
11809;SDS011;5962;41.566;23.734;2024-03-22T10:22:15;3.47;;;2.40;;
11809;SDS011;5962;41.566;23.734;2024-03-22T10:24:43;2.23;;;2.03;;
11809;SDS011;5962;41.566;23.734;2024-03-22T10:27:10;3.03;;;2.17;;
11809;SDS011;5962;41.566;23.734;2024-03-22T10:29:36;2.17;;;1.93;;
11809;SDS011;5962;41.566;23.734;2024-03-22T10:32:03;2.67;;;2.00;;
11809;SDS011;5962;41.566;23.734;2024-03-22T10:34:30;8.10;;;2.10;;
11809;SDS011;5962;41.566;23.734;2024-03-22T10:36:59;1.90;;;1.67;;
11809;SDS011;5962;41.566;23.734;2024-03-22T10:39:26;3.37;;;2.33;;
11809;SDS011;5962;41.566;23.734;2024-03-22T10:41:55;1.80;;;1.70;;
11809;SDS011;5962;41.566;23.734;2024-03-22T10:44:21;1.67;;;1.57;;
11809;SDS011;5962;41.566;23.734;2024-03-22T10:46:48;2.80;;;2.20;;
11809;SDS011;5962;41.566;23.734;2024-03-22T10:49:15;2.83;;;1.70;;
11809;SDS011;5962;41.566;23.734;2024-03-22T10:51:44;1.87;;;1.77;;
11809;SDS011;5962;41.566;23.734;2024-03-22T10:54:16;2.37;;;1.40;;
11809;SDS011;5962;41.566;23.734;2024-03-22T10:56:47;1.53;;;1.43;;
11809;SDS011;5962;41.566;23.734;2024-03-22T10:59:18;1.40;;;1.30;;
11809;SDS011;5962;41.566;23.734;2024-03-22T11:01:46;2.00;;;1.73;;
11809;SDS011;5962;41.566;23.734;2024-03-22T11:04:14;2.17;;;1.67;;
11809;SDS011;5962;41.566;23.734;2024-03-22T11:06:46;2.33;;;2.10;;
11809;SDS011;5962;41.566;23.734;2024-03-22T11:09:18;2.90;;;1.70;;
11809;SDS011;5962;41.566;23.734;2024-03-22T11:11:46;2.77;;;1.70;;
11809;SDS011;5962;41.566;23.734;2024-03-22T11:14:13;1.60;;;1.50;;
11809;SDS011;5962;41.566;23.734;2024-03-22T11:16:43;2.93;;;2.30;;
11809;SDS011;5962;41.566;23.734;2024-03-22T11:19:10;6.20;;;1.90;;
11809;SDS011;5962;41.566;23.734;2024-03-22T11:21:37;7.60;;;4.83;;
11809;SDS011;5962;41.566;23.734;2024-03-22T11:24:03;13.00;;;5.40;;
11809;SDS011;5962;41.566;23.734;2024-03-22T11:26:31;5.73;;;1.90;;
11809;SDS011;5962;41.566;23.734;2024-03-22T11:28:57;4.10;;;1.90;;
11809;SDS011;5962;41.566;23.734;2024-03-22T11:31:24;5.20;;;1.90;;
11809;SDS011;5962;41.566;23.734;2024-03-22T11:33:54;1.87;;;1.77;;
11809;SDS011;5962;41.566;23.734;2024-03-22T11:36:21;2.10;;;1.90;;
11809;SDS011;5962;41.566;23.734;2024-03-22T11:38:47;3.87;;;2.10;;
11809;SDS011;5962;41.566;23.734;2024-03-22T11:41:16;2.43;;;2.00;;
11809;SDS011;5962;41.566;23.734;2024-03-22T11:43:44;2.27;;;2.07;;
11809;SDS011;5962;41.566;23.734;2024-03-22T11:46:14;5.20;;;2.10;;
11809;SDS011;5962;41.566;23.734;2024-03-22T11:48:40;1.97;;;1.70;;
11809;SDS011;5962;41.566;23.734;2024-03-22T11:51:09;2.00;;;1.80;;
11809;SDS011;5962;41.566;23.734;2024-03-22T11:53:35;2.60;;;1.77;;
11809;SDS011;5962;41.566;23.734;2024-03-22T11:56:03;1.90;;;1.80;;
11809;SDS011;5962;41.566;23.734;2024-03-22T11:58:30;2.43;;;1.90;;
11809;SDS011;5962;41.566;23.734;2024-03-22T12:00:57;1.60;;;1.50;;
11809;SDS011;5962;41.566;23.734;2024-03-22T12:03:23;2.55;;;1.98;;
11809;SDS011;5962;41.566;23.734;2024-03-22T12:05:50;2.30;;;1.80;;
11809;SDS011;5962;41.566;23.734;2024-03-22T12:08:21;2.70;;;1.53;;
11809;SDS011;5962;41.566;23.734;2024-03-22T12:10:51;5.70;;;1.57;;
11809;SDS011;5962;41.566;23.734;2024-03-22T12:13:17;2.58;;;1.90;;
11809;SDS011;5962;41.566;23.734;2024-03-22T12:15:44;4.43;;;1.83;;
11809;SDS011;5962;41.566;23.734;2024-03-22T12:18:10;1.90;;;1.80;;
11809;SDS011;5962;41.566;23.734;2024-03-22T12:20:36;2.42;;;1.90;;
11809;SDS011;5962;41.566;23.734;2024-03-22T12:23:03;1.95;;;1.70;;
11809;SDS011;5962;41.566;23.734;2024-03-22T12:25:31;3.33;;;1.80;;
11809;SDS011;5962;41.566;23.734;2024-03-22T12:27:57;3.20;;;1.63;;
11809;SDS011;5962;41.566;23.734;2024-03-22T12:30:24;5.18;;;2.13;;
11809;SDS011;5962;41.566;23.734;2024-03-22T12:32:51;2.63;;;2.00;;
11809;SDS011;5962;41.566;23.734;2024-03-22T12:35:18;2.10;;;1.95;;
11809;SDS011;5962;41.566;23.734;2024-03-22T12:37:44;4.32;;;2.03;;
11809;SDS011;5962;41.566;23.734;2024-03-22T12:40:11;2.35;;;1.67;;
11809;SDS011;5962;41.566;23.734;2024-03-22T12:42:40;3.47;;;1.80;;
11809;SDS011;5962;41.566;23.734;2024-03-22T12:45:08;1.67;;;1.58;;
11809;SDS011;5962;41.566;23.734;2024-03-22T12:47:34;2.08;;;1.88;;
11809;SDS011;5962;41.566;23.734;2024-03-22T12:50:01;1.90;;;1.75;;
11809;SDS011;5962;41.566;23.734;2024-03-22T12:52:30;1.70;;;1.60;;
11809;SDS011;5962;41.566;23.734;2024-03-22T12:54:56;2.33;;;1.70;;
11809;SDS011;5962;41.566;23.734;2024-03-22T12:57:22;2.22;;;2.03;;
11809;SDS011;5962;41.566;23.734;2024-03-22T12:59:51;2.30;;;1.88;;
11809;SDS011;5962;41.566;23.734;2024-03-22T13:02:17;2.17;;;1.98;;
11809;SDS011;5962;41.566;23.734;2024-03-22T13:04:44;4.28;;;2.17;;
11809;SDS011;5962;41.566;23.734;2024-03-22T13:07:10;2.53;;;2.00;;
11809;SDS011;5962;41.566;23.734;2024-03-22T13:09:37;2.65;;;2.00;;
11809;SDS011;5962;41.566;23.734;2024-03-22T13:12:03;5.82;;;2.50;;
11809;SDS011;5962;41.566;23.734;2024-03-22T13:14:30;5.85;;;2.38;;
11809;SDS011;5962;41.566;23.734;2024-03-22T13:16:57;2.40;;;2.20;;
11809;SDS011;5962;41.566;23.734;2024-03-22T13:19:24;4.25;;;3.15;;
11809;SDS011;5962;41.566;23.734;2024-03-22T13:21:50;3.17;;;2.38;;
11809;SDS011;5962;41.566;23.734;2024-03-22T13:24:17;2.78;;;2.47;;
11809;SDS011;5962;41.566;23.734;2024-03-22T13:26:44;5.65;;;3.10;;
11809;SDS011;5962;41.566;23.734;2024-03-22T13:29:11;4.82;;;2.42;;
11809;SDS011;5962;41.566;23.734;2024-03-22T13:31:39;2.28;;;1.92;;
11809;SDS011;5962;41.566;23.734;2024-03-22T13:34:07;4.22;;;2.22;;
11809;SDS011;5962;41.566;23.734;2024-03-22T13:36:33;3.13;;;2.20;;
11809;SDS011;5962;41.566;23.734;2024-03-22T13:39:03;3.00;;;2.20;;
11809;SDS011;5962;41.566;23.734;2024-03-22T13:41:29;2.80;;;1.95;;
11809;SDS011;5962;41.566;23.734;2024-03-22T13:43:56;2.63;;;2.42;;
11809;SDS011;5962;41.566;23.734;2024-03-22T13:46:23;2.47;;;2.28;;
11809;SDS011;5962;41.566;23.734;2024-03-22T13:48:51;2.28;;;2.08;;
11809;SDS011;5962;41.566;23.734;2024-03-22T13:51:18;4.45;;;1.92;;
11809;SDS011;5962;41.566;23.734;2024-03-22T13:53:45;2.10;;;2.00;;
11809;SDS011;5962;41.566;23.734;2024-03-22T13:56:11;3.15;;;2.85;;
11809;SDS011;5962;41.566;23.734;2024-03-22T13:58:38;2.85;;;2.30;;
11809;SDS011;5962;41.566;23.734;2024-03-22T14:01:04;5.95;;;2.13;;
11809;SDS011;5962;41.566;23.734;2024-03-22T14:03:31;2.15;;;1.85;;
11809;SDS011;5962;41.566;23.734;2024-03-22T14:05:57;2.83;;;2.00;;
11809;SDS011;5962;41.566;23.734;2024-03-22T14:08:25;5.63;;;2.70;;
11809;SDS011;5962;41.566;23.734;2024-03-22T14:10:51;3.58;;;2.88;;
11809;SDS011;5962;41.566;23.734;2024-03-22T14:13:18;4.80;;;2.80;;
11809;SDS011;5962;41.566;23.734;2024-03-22T14:15:44;3.08;;;2.78;;
11809;SDS011;5962;41.566;23.734;2024-03-22T14:18:11;6.78;;;3.03;;
11809;SDS011;5962;41.566;23.734;2024-03-22T14:20:37;7.40;;;3.85;;
11809;SDS011;5962;41.566;23.734;2024-03-22T14:23:04;5.80;;;3.30;;
11809;SDS011;5962;41.566;23.734;2024-03-22T14:25:33;3.03;;;2.80;;
11809;SDS011;5962;41.566;23.734;2024-03-22T14:28:01;4.22;;;3.17;;
11809;SDS011;5962;41.566;23.734;2024-03-22T14:30:27;2.90;;;2.60;;
11809;SDS011;5962;41.566;23.734;2024-03-22T14:32:54;5.00;;;2.50;;
11809;SDS011;5962;41.566;23.734;2024-03-22T14:35:20;3.17;;;2.87;;
11809;SDS011;5962;41.566;23.734;2024-03-22T14:37:48;3.53;;;2.88;;
11809;SDS011;5962;41.566;23.734;2024-03-22T14:40:14;3.13;;;2.38;;
11809;SDS011;5962;41.566;23.734;2024-03-22T14:42:43;3.88;;;2.95;;